createdAt,value
2018-02-08T00:02:07.019Z,-0.61
2018-02-08T00:04:37.702Z,-0.99
2018-02-08T00:07:08.417Z,-1.36
2018-02-08T00:09:39.075Z,-0.83
2018-02-08T00:12:09.758Z,-0.53
2018-02-08T00:14:41.263Z,-0.76
2018-02-08T00:17:12.394Z,-0.75
2018-02-08T00:19:43.130Z,-1.02
2018-02-08T00:22:22.423Z,-1.22
2018-02-08T00:24:53.135Z,-0.49
2018-02-08T00:27:24.653Z,-1.06
2018-02-08T00:30:03.132Z,-1.37
2018-02-08T00:32:34.218Z,-0.59
2018-02-08T00:35:04.975Z,-0.91
2018-02-08T00:37:35.770Z,-1.08
2018-02-08T00:40:06.552Z,-1.49
2018-02-08T00:42:37.882Z,-1.75
2018-02-08T00:45:09.712Z,-1.74
2018-02-08T00:47:40.976Z,-1.02
2018-02-08T00:50:12.267Z,-0.74
2018-02-08T00:52:44.192Z,-1.02
2018-02-08T00:55:14.838Z,-1.36
2018-02-08T00:57:46.014Z,-0.81
2018-02-08T01:00:16.963Z,-0.51
2018-02-08T01:02:48.491Z,-0.82
2018-02-08T01:05:19.759Z,-1.14
2018-02-08T01:07:50.430Z,-0.96
2018-02-08T01:10:21.706Z,-0.53
2018-02-08T01:12:52.951Z,-0.33
2018-02-08T01:15:24.277Z,-0.75
2018-02-08T01:17:55.187Z,-0.92
2018-02-08T01:20:26.079Z,-0.97
2018-02-08T01:22:57.103Z,-0.40
2018-02-08T01:25:28.878Z,-1.22
2018-02-08T01:28:00.764Z,-1.54
2018-02-08T01:30:32.326Z,-0.94
2018-02-08T01:33:04.043Z,-1.42
2018-02-08T01:35:35.454Z,-1.70
2018-02-08T01:38:07.019Z,-1.78
2018-02-08T01:40:38.759Z,-1.82
2018-02-08T01:43:10.150Z,-1.79
2018-02-08T01:45:41.868Z,-1.78
2018-02-08T01:48:13.598Z,-1.42
2018-02-08T01:50:45.103Z,-1.60
2018-02-08T01:53:16.921Z,-1.75
2018-02-08T01:55:48.450Z,-1.84
2018-02-08T01:58:19.785Z,-1.87
2018-02-08T02:00:51.182Z,-1.93
2018-02-08T02:03:22.361Z,-1.96
2018-02-08T02:05:53.267Z,-1.78
2018-02-08T02:08:24.789Z,-1.83
2018-02-08T02:10:56.362Z,-1.74
2018-02-08T02:13:27.201Z,-1.87
2018-02-08T02:15:58.748Z,-1.69
2018-02-08T02:18:30.216Z,-1.58
2018-02-08T02:21:01.670Z,-1.77
2018-02-08T02:23:32.867Z,-1.89
2018-02-08T02:26:04.749Z,-1.93
2018-02-08T02:28:35.958Z,-1.88
2018-02-08T02:31:07.246Z,-1.86
2018-02-08T02:33:38.730Z,-1.90
2018-02-08T02:36:10.104Z,-1.94
2018-02-08T02:38:41.921Z,-1.94
2018-02-08T02:41:13.859Z,-1.94
2018-02-08T02:43:45.114Z,-1.95
2018-02-08T02:46:16.857Z,-1.95
2018-02-08T02:48:47.762Z,-1.98
2018-02-08T02:51:19.336Z,-1.89
2018-02-08T02:53:50.556Z,-1.94
2018-02-08T02:56:21.787Z,-1.85
2018-02-08T02:58:53.674Z,-1.58
2018-02-08T03:01:24.754Z,-1.86
2018-02-08T03:03:56.717Z,-1.96
2018-02-08T03:06:27.921Z,-1.98
2018-02-08T03:08:59.934Z,-2.02
2018-02-08T03:11:31.234Z,-1.96
2018-02-08T03:14:02.096Z,-1.67
2018-02-08T03:16:33.551Z,-1.66
2018-02-08T03:19:05.550Z,-1.86
2018-02-08T03:21:37.171Z,-1.69
2018-02-08T03:24:08.992Z,-1.87
2018-02-08T03:26:40.822Z,-1.91
2018-02-08T03:29:12.202Z,-1.95
2018-02-08T03:31:43.788Z,-1.92
2018-02-08T03:34:15.529Z,-1.85
2018-02-08T03:36:47.242Z,-1.89
2018-02-08T03:39:18.909Z,-1.96
2018-02-08T03:41:50.248Z,-1.90
2018-02-08T03:44:21.950Z,-1.89
2018-02-08T03:46:53.549Z,-1.92
2018-02-08T03:49:24.374Z,-1.93
2018-02-08T03:51:55.879Z,-1.97
2018-02-08T03:54:27.113Z,-1.96
2018-02-08T03:56:58.308Z,-1.98
2018-02-08T03:59:29.618Z,-1.64
2018-02-08T04:02:01.228Z,-1.62
2018-02-08T04:04:32.702Z,-1.33
2018-02-08T04:07:03.970Z,-1.08
2018-02-08T04:09:35.307Z,-1.30
2018-02-08T04:12:06.155Z,-1.20
2018-02-08T04:14:37.872Z,-0.68
2018-02-08T04:17:09.043Z,-0.52
2018-02-08T04:19:40.261Z,-0.39
2018-02-08T04:22:11.957Z,-0.12
2018-02-08T04:24:43.457Z,-0.42
2018-02-08T04:27:14.366Z,-0.55
2018-02-08T04:29:45.186Z,-0.75
2018-02-08T04:32:16.942Z,-0.37
2018-02-08T04:34:48.375Z,-0.42
2018-02-08T04:37:19.577Z,-0.34
2018-02-08T04:42:03.290Z,-0.59
2018-02-08T04:45:42.622Z,-0.46
2018-02-08T04:48:14.273Z,-0.46
2018-02-08T04:50:45.813Z,-0.47
2018-02-08T04:53:17.408Z,-0.36
2018-02-08T04:55:48.605Z,-0.51
2018-02-08T04:58:20.208Z,-0.79
2018-02-08T05:04:12.610Z,-0.43
2018-02-08T05:06:43.831Z,-0.39
2018-02-08T05:09:15.198Z,-0.29
2018-02-08T05:11:47.077Z,-0.30
2018-02-08T05:14:18.866Z,-0.31
2018-02-08T05:16:50.554Z,-0.33
2018-02-08T05:19:21.970Z,-0.46
2018-02-08T05:21:53.826Z,-0.36
2018-02-08T05:24:25.150Z,-0.46
2018-02-08T05:26:56.262Z,-0.44
2018-02-08T05:29:27.960Z,-0.90
2018-02-08T05:31:59.466Z,-0.92
2018-02-08T05:34:30.311Z,-1.18
2018-02-08T05:37:02.127Z,-1.31
2018-02-08T05:39:33.962Z,-1.15
2018-02-08T05:42:05.251Z,-1.20
2018-02-08T05:44:36.712Z,-1.27
2018-02-08T05:47:08.718Z,-1.28
2018-02-08T05:49:40.482Z,-1.09
2018-02-08T05:52:12.184Z,-1.28
2018-02-08T05:54:43.283Z,-1.35
2018-02-08T05:57:14.748Z,-1.50
2018-02-08T05:59:45.611Z,-1.83
2018-02-08T06:02:16.934Z,-2.04
2018-02-08T06:04:47.861Z,-2.14
2018-02-08T06:07:19.263Z,-2.07
2018-02-08T06:09:51.303Z,-2.03
2018-02-08T06:12:22.678Z,-2.05
2018-02-08T06:14:53.582Z,-2.06
2018-02-08T06:17:24.954Z,-2.14
2018-02-08T06:19:56.299Z,-2.19
2018-02-08T06:22:27.226Z,-2.16
2018-02-08T06:24:58.686Z,-2.02
2018-02-08T06:27:29.577Z,-2.00
2018-02-08T06:30:00.453Z,-1.90
2018-02-08T06:32:31.300Z,-1.43
2018-02-08T06:35:02.467Z,-1.67
2018-02-08T06:37:33.341Z,-1.82
2018-02-08T06:40:04.722Z,-1.79
2018-02-08T06:42:36.258Z,-1.55
2018-02-08T06:45:08.471Z,-1.39
2018-02-08T06:47:39.476Z,-1.53
2018-02-08T06:50:11.143Z,-1.29
2018-02-08T06:52:42.690Z,-1.38
2018-02-08T06:55:18.648Z,-1.62
2018-02-08T06:57:50.206Z,-1.22
2018-02-08T07:00:21.847Z,-1.03
2018-02-08T07:02:52.705Z,-0.93
2018-02-08T07:05:23.574Z,-0.82
2018-02-08T07:07:59.425Z,-0.67
2018-02-08T07:10:30.632Z,-1.12
2018-02-08T07:13:01.610Z,-1.50
2018-02-08T07:15:32.895Z,-0.97
2018-02-08T07:18:03.828Z,-1.28
2018-02-08T07:20:34.708Z,-1.03
2018-02-08T07:23:05.904Z,-0.91
2018-02-08T07:25:36.694Z,-0.88
2018-02-08T07:28:07.544Z,-0.75
2018-02-08T07:30:38.362Z,-1.10
2018-02-08T07:33:09.299Z,-0.94
2018-02-08T07:35:40.147Z,-0.70
2018-02-08T07:38:11.387Z,-0.83
2018-02-08T07:40:42.261Z,-0.58
2018-02-08T07:43:13.759Z,-0.39
2018-02-08T07:45:44.630Z,-0.70
2018-02-08T07:48:15.441Z,-0.62
2018-02-08T07:50:46.739Z,-0.61
2018-02-08T07:53:18.350Z,-1.07
2018-02-08T07:55:49.698Z,-0.82
2018-02-08T07:58:20.698Z,-0.81
2018-02-08T08:00:51.834Z,-0.80
2018-02-08T08:03:22.686Z,-0.39
2018-02-08T08:05:53.559Z,-0.60
2018-02-08T08:08:24.814Z,-1.42
2018-02-08T08:10:55.834Z,-1.34
2018-02-08T08:13:27.290Z,-1.31
2018-02-08T08:15:58.128Z,-1.61
2018-02-08T08:18:28.986Z,-0.73
2018-02-08T08:21:00.628Z,-0.76
2018-02-08T08:23:31.547Z,-1.45
2018-02-08T08:26:02.438Z,-0.80
2018-02-08T08:28:33.242Z,-1.47
2018-02-08T08:31:04.038Z,-1.29
2018-02-08T08:33:34.850Z,-1.06
2018-02-08T08:36:05.854Z,-1.43
2018-02-08T08:38:36.737Z,-0.59
2018-02-08T08:41:07.930Z,-1.12
2018-02-08T08:43:38.750Z,-1.45
2018-02-08T08:46:09.534Z,-1.12
2018-02-08T08:51:21.245Z,-0.76
2018-02-08T08:53:52.916Z,-0.62
2018-02-08T08:56:23.746Z,-0.44
2018-02-08T08:58:54.823Z,-0.07
2018-02-08T09:01:25.698Z,0.01
2018-02-08T09:03:56.962Z,-0.26
2018-02-08T09:06:27.862Z,-0.27
2018-02-08T09:08:58.999Z,-0.70
2018-02-08T09:11:29.908Z,-1.16
2018-02-08T09:14:00.772Z,-0.29
2018-02-08T09:16:32.176Z,-0.02
2018-02-08T09:19:03.420Z,-0.01
2018-02-08T09:21:34.812Z,-0.31
2018-02-08T09:24:05.617Z,-0.03
2018-02-08T09:26:36.423Z,-0.18
2018-02-08T09:29:07.249Z,-0.06
2018-02-08T09:31:38.107Z,0.05
2018-02-08T09:34:09.267Z,0.09
2018-02-08T09:36:40.256Z,-0.05
2018-02-08T09:39:11.419Z,-0.14
2018-02-08T09:41:42.310Z,0.07
2018-02-08T09:44:13.129Z,0.33
2018-02-08T09:46:44.082Z,0.37
2018-02-08T09:49:14.848Z,0.16
2018-02-08T09:51:45.657Z,-0.03
2018-02-08T09:54:16.470Z,0.19
2018-02-08T09:56:47.369Z,0.13
2018-02-08T09:59:18.292Z,0.03
2018-02-08T10:01:49.359Z,-0.17
2018-02-08T10:04:20.209Z,-0.11
2018-02-08T10:06:51.088Z,-0.39
2018-02-08T10:09:22.157Z,-0.21
2018-02-08T10:11:52.956Z,0.22
2018-02-08T10:14:23.985Z,0.42
2018-02-08T10:16:54.780Z,0.47
2018-02-08T10:19:25.663Z,0.37
2018-02-08T10:21:56.576Z,-0.05
2018-02-08T10:24:27.929Z,0.44
2018-02-08T10:26:58.700Z,0.33
2018-02-08T10:29:29.745Z,0.40
2018-02-08T10:32:00.612Z,-0.27
2018-02-08T10:34:31.413Z,0.37
2018-02-08T10:37:02.308Z,-0.03
2018-02-08T10:39:33.120Z,0.64
2018-02-08T10:42:04.026Z,0.45
2018-02-08T10:44:35.056Z,-0.06
2018-02-08T10:47:06.552Z,-0.11
2018-02-08T10:49:37.654Z,-0.63
2018-02-08T10:52:08.440Z,-0.61
2018-02-08T10:54:39.190Z,-0.62
2018-02-08T10:57:10.288Z,-0.19
2018-02-08T10:59:41.104Z,-0.01
2018-02-08T11:02:11.894Z,0.27
2018-02-08T11:04:42.764Z,0.32
2018-02-08T11:07:13.604Z,0.46
2018-02-08T11:09:44.400Z,0.03
2018-02-08T11:12:15.537Z,0.20
2018-02-08T11:14:46.338Z,0.61
2018-02-08T11:17:17.112Z,-0.23
2018-02-08T11:19:48.308Z,-0.39
2018-02-08T11:22:19.082Z,-0.07
2018-02-08T11:24:49.798Z,-0.44
2018-02-08T11:27:20.991Z,-0.43
2018-02-08T11:29:51.757Z,0.06
2018-02-08T11:32:23.040Z,-0.24
2018-02-08T11:34:53.784Z,0.41
2018-02-08T11:37:24.560Z,0.18
2018-02-08T11:39:56.304Z,-0.26
2018-02-08T11:42:27.146Z,-0.19
2018-02-08T11:44:57.960Z,-0.32
2018-02-08T11:47:28.768Z,0.30
2018-02-08T11:49:59.588Z,0.57
2018-02-08T11:52:30.357Z,-0.09
2018-02-08T11:55:01.455Z,-0.34
2018-02-08T11:57:32.257Z,-0.13
2018-02-08T12:00:03.145Z,-0.45
2018-02-08T12:02:34.176Z,-0.43
2018-02-08T12:05:04.993Z,0.28
2018-02-08T12:07:36.124Z,0.20
2018-02-08T12:10:06.957Z,-0.04
2018-02-08T12:12:37.713Z,-0.16
2018-02-08T12:15:08.916Z,-0.46
2018-02-08T12:17:39.754Z,-0.58
2018-02-08T12:20:10.553Z,-0.64
2018-02-08T12:22:42.336Z,-0.31
2018-02-08T12:25:13.205Z,-0.24
2018-02-08T12:27:43.949Z,-0.45
2018-02-08T12:30:15.038Z,0.12
2018-02-08T12:32:45.856Z,0.12
2018-02-08T12:35:16.696Z,0.45
2018-02-08T12:37:47.763Z,0.67
2018-02-08T12:40:18.604Z,0.41
2018-02-08T12:42:49.698Z,0.71
2018-02-08T12:45:20.522Z,0.84
2018-02-08T12:47:51.344Z,0.45
2018-02-08T12:50:22.563Z,-0.10
2018-02-08T12:52:53.427Z,-0.49
2018-02-08T12:55:24.736Z,-0.61
2018-02-08T12:58:02.375Z,-0.63
2018-02-08T13:00:33.626Z,-0.40
2018-02-08T13:03:05.115Z,-0.69
2018-02-08T13:05:35.969Z,-0.60
2018-02-08T13:08:06.784Z,-0.29
2018-02-08T13:10:38.240Z,0.27
2018-02-08T13:13:09.124Z,0.02
2018-02-08T13:15:39.991Z,0.10
2018-02-08T13:18:11.044Z,0.28
2018-02-08T13:20:41.880Z,0.19
2018-02-08T13:23:12.785Z,0.54
2018-02-08T13:25:43.924Z,0.82
2018-02-08T13:28:14.924Z,0.22
2018-02-08T13:30:46.097Z,0.34
2018-02-08T13:33:16.844Z,-0.18
2018-02-08T13:35:47.680Z,-0.21
2018-02-08T13:38:18.699Z,0.17
2018-02-08T13:40:49.825Z,0.67
2018-02-08T13:43:20.704Z,0.10
2018-02-08T13:45:52.573Z,-0.24
2018-02-08T13:48:23.650Z,-0.35
2018-02-08T13:50:54.758Z,-0.03
2018-02-08T13:53:26.528Z,0.89
2018-02-08T13:55:58.187Z,0.71
2018-02-08T13:58:29.335Z,0.26
2018-02-08T14:01:00.350Z,-0.01
2018-02-08T14:03:31.656Z,0.07
2018-02-08T14:06:02.384Z,0.02
2018-02-08T14:08:33.232Z,0.55
2018-02-08T14:11:04.216Z,-0.24
2018-02-08T14:13:35.018Z,-0.24
2018-02-08T14:16:05.945Z,0.29
2018-02-08T14:18:37.154Z,0.46
2018-02-08T14:21:08.329Z,0.90
2018-02-08T14:23:39.476Z,0.65
2018-02-08T14:26:10.245Z,0.80
2018-02-08T14:28:41.025Z,0.53
2018-02-08T14:31:12.096Z,0.52
2018-02-08T14:33:43.460Z,0.04
2018-02-08T14:36:14.244Z,-0.17
2018-02-08T14:38:45.400Z,-0.27
2018-02-08T14:41:16.425Z,0.01
2018-02-08T14:43:47.255Z,0.63
2018-02-08T14:46:18.346Z,0.74
2018-02-08T14:48:49.186Z,0.52
2018-02-08T14:51:19.976Z,0.45
2018-02-08T14:53:55.220Z,0.41
2018-02-08T14:56:25.983Z,0.35
2018-02-08T14:58:57.076Z,0.34
2018-02-08T15:01:27.834Z,0.62
2018-02-08T15:03:58.705Z,0.49
2018-02-08T15:06:29.914Z,0.16
2018-02-08T15:09:00.768Z,-0.27
2018-02-08T15:11:34.107Z,-0.09
2018-02-08T15:14:05.220Z,0.15
2018-02-08T15:16:36.087Z,0.06
2018-02-08T15:19:06.960Z,-0.11
2018-02-08T15:21:38.629Z,-0.43
2018-02-08T15:24:09.449Z,-0.23
2018-02-08T15:26:40.224Z,-0.69
2018-02-08T15:29:11.346Z,-0.80
2018-02-08T15:31:42.158Z,-0.69
2018-02-08T15:34:13.076Z,-0.78
2018-02-08T15:36:44.165Z,-0.66
2018-02-08T15:39:15.010Z,-0.71
2018-02-08T15:41:45.883Z,-0.46
2018-02-08T15:44:16.640Z,-0.65
2018-02-08T15:46:47.572Z,-0.46
2018-02-08T15:49:18.713Z,-0.47
2018-02-08T15:51:49.618Z,-0.37
2018-02-08T15:54:20.836Z,-0.50
2018-02-08T15:56:52.078Z,-0.73
2018-02-08T15:59:22.857Z,-0.38
2018-02-08T16:01:53.708Z,-0.22
2018-02-08T16:04:24.814Z,-0.10
2018-02-08T16:06:56.303Z,-0.49
2018-02-08T16:09:27.191Z,-0.83
2018-02-08T16:11:58.351Z,-0.73
2018-02-08T16:14:29.055Z,-0.35
2018-02-08T16:17:00.174Z,-0.73
2018-02-08T16:19:30.981Z,-0.37
2018-02-08T16:22:01.895Z,-0.47
2018-02-08T16:24:33.012Z,-0.42
2018-02-08T16:27:03.841Z,-0.65
2018-02-08T16:29:34.789Z,-0.57
2018-02-08T16:32:05.936Z,-0.30
2018-02-08T16:34:36.734Z,-0.83
2018-02-08T16:37:07.600Z,-0.67
2018-02-08T16:39:38.794Z,-0.97
2018-02-08T16:42:09.632Z,-1.22
2018-02-08T16:44:40.460Z,-1.06
2018-02-08T16:47:11.954Z,-1.30
2018-02-08T16:49:42.768Z,-1.07
2018-02-08T16:52:14.036Z,-1.19
2018-02-08T16:54:45.776Z,-0.99
2018-02-08T16:57:16.706Z,-0.64
2018-02-08T16:59:47.784Z,-0.71
2018-02-08T17:02:18.625Z,-0.54
2018-02-08T17:04:49.684Z,-0.87
2018-02-08T17:07:20.796Z,-1.01
2018-02-08T17:09:52.088Z,-0.89
2018-02-08T17:12:22.981Z,-0.01
2018-02-08T17:14:54.088Z,-0.18
2018-02-08T17:17:24.892Z,-0.70
2018-02-08T17:19:55.944Z,-0.57
2018-02-08T17:22:28.049Z,-0.51
2018-02-08T17:24:58.904Z,-0.28
2018-02-08T17:27:29.817Z,-0.05
2018-02-08T17:30:00.556Z,-0.17
2018-02-08T17:32:31.789Z,-0.14
2018-02-08T17:35:03.531Z,-0.27
2018-02-08T17:37:35.453Z,-0.14
2018-02-08T17:40:07.053Z,-0.14
2018-02-08T17:42:38.224Z,0.16
2018-02-08T17:45:09.037Z,-0.50
2018-02-08T17:47:41.173Z,-0.52
2018-02-08T17:50:12.340Z,-0.43
2018-02-08T17:52:43.137Z,-0.84
2018-02-08T17:55:14.001Z,-1.17
2018-02-08T17:57:45.120Z,-0.95
2018-02-08T18:00:16.933Z,-0.76
2018-02-08T18:02:47.889Z,-0.49
2018-02-08T18:05:19.056Z,-0.78
2018-02-08T18:07:49.995Z,-0.82
2018-02-08T18:10:20.842Z,-1.01
2018-02-08T18:12:52.248Z,-1.11
2018-02-08T18:15:23.063Z,-0.94
2018-02-08T18:17:54.128Z,-1.24
2018-02-08T18:20:25.013Z,-0.42
2018-02-08T18:22:55.852Z,-0.86
2018-02-08T18:25:27.037Z,-0.88
2018-02-08T18:27:57.811Z,-0.20
2018-02-08T18:30:28.659Z,-0.02
2018-02-08T18:32:59.781Z,-0.20
2018-02-08T18:35:30.634Z,0.23
2018-02-08T18:38:01.447Z,0.24
2018-02-08T18:40:32.359Z,0.09
2018-02-08T18:43:03.221Z,0.20
2018-02-08T18:45:34.288Z,-0.26
2018-02-08T18:48:05.337Z,-0.17
2018-02-08T18:50:36.113Z,-0.07
2018-02-08T18:53:08.662Z,0.09
2018-02-08T18:55:39.568Z,-0.04
2018-02-08T18:58:10.424Z,-0.03
2018-02-08T19:00:41.589Z,-0.04
2018-02-08T19:03:12.415Z,-0.03
2018-02-08T19:05:43.128Z,0.04
2018-02-08T19:08:14.240Z,-0.24
2018-02-08T19:10:45.757Z,-0.07
2018-02-08T19:13:16.758Z,0.03
2018-02-08T19:15:47.553Z,-0.02
2018-02-08T19:18:18.356Z,-0.16
2018-02-08T19:20:49.233Z,-0.13
2018-02-08T19:23:20.164Z,-0.10
2018-02-08T19:25:51.071Z,0.08
2018-02-08T19:28:22.407Z,0.13
2018-02-08T19:30:53.204Z,0.12
2018-02-08T19:33:24.102Z,-0.12
2018-02-08T19:35:55.440Z,0.02
2018-02-08T19:38:26.276Z,0.17
2018-02-08T19:40:57.085Z,0.09
2018-02-08T19:43:28.160Z,0.23
2018-02-08T19:45:58.977Z,0.02
2018-02-08T19:48:30.170Z,0.04
2018-02-08T19:51:00.952Z,0.19
2018-02-08T19:53:32.047Z,0.02
2018-02-08T19:56:03.261Z,0.07
2018-02-08T19:58:34.088Z,-0.23
2018-02-08T20:01:04.936Z,-0.26
2018-02-08T20:03:36.014Z,0.08
2018-02-08T20:06:06.867Z,-0.05
2018-02-08T20:08:37.669Z,-0.01
2018-02-08T20:11:08.480Z,-0.36
2018-02-08T20:13:39.356Z,-0.01
2018-02-08T20:16:10.237Z,-0.06
2018-02-08T20:18:41.308Z,-0.26
2018-02-08T20:21:12.197Z,-0.88
2018-02-08T20:23:43.369Z,-0.30
2018-02-08T20:26:14.208Z,-0.19
2018-02-08T20:28:45.358Z,-0.58
2018-02-08T20:31:16.392Z,-0.47
2018-02-08T20:33:47.161Z,-0.53
2018-02-08T20:36:18.024Z,-0.40
2018-02-08T20:38:48.828Z,-1.00
2018-02-08T20:41:19.656Z,-0.79
2018-02-08T20:43:50.741Z,-0.40
2018-02-08T20:46:21.676Z,-0.25
2018-02-08T20:48:52.496Z,-0.12
2018-02-08T20:51:23.708Z,-0.29
2018-02-08T20:53:54.585Z,-0.41
2018-02-08T20:56:25.324Z,-0.56
2018-02-08T20:58:56.240Z,-0.26
2018-02-08T21:01:27.130Z,-0.18
2018-02-08T21:03:58.275Z,-0.18
2018-02-08T21:06:29.128Z,-0.21
2018-02-08T21:08:59.956Z,-0.47
2018-02-08T21:11:31.030Z,-0.33
2018-02-08T21:14:01.909Z,-0.20
2018-02-08T21:16:32.753Z,-0.14
2018-02-08T21:19:03.888Z,-0.20
2018-02-08T21:21:35.071Z,-0.22
2018-02-08T21:24:05.864Z,-0.22
2018-02-08T21:26:36.920Z,-0.24
2018-02-08T21:29:07.776Z,-0.63
2018-02-08T21:31:38.623Z,-0.65
2018-02-08T21:34:09.760Z,-0.83
2018-02-08T21:36:40.615Z,-0.86
2018-02-08T21:39:11.673Z,-0.82
2018-02-08T21:41:42.487Z,-0.57
2018-02-08T21:44:13.403Z,-0.77
2018-02-08T21:46:44.604Z,-0.91
2018-02-08T21:49:16.440Z,-0.90
2018-02-08T21:51:47.280Z,-0.93
2018-02-08T21:54:18.136Z,-0.83
2018-02-08T21:56:48.921Z,-0.91
2018-02-08T21:59:19.672Z,-1.04
2018-02-08T22:01:50.832Z,-1.18
2018-02-08T22:04:21.692Z,-1.11
2018-02-08T22:06:52.513Z,-1.11
2018-02-08T22:09:23.632Z,-1.15
2018-02-08T22:11:54.474Z,-1.15
2018-02-08T22:14:25.648Z,-1.02
2018-02-08T22:16:56.510Z,-1.17
2018-02-08T22:19:27.384Z,-1.25
2018-02-08T22:21:59.333Z,-1.44
2018-02-08T22:24:30.097Z,-1.35
2018-02-08T22:27:00.912Z,-1.72
2018-02-08T22:29:32.728Z,-1.60
2018-02-08T22:32:03.534Z,-1.59
2018-02-08T22:34:34.356Z,-1.74
2018-02-08T22:37:06.149Z,-1.60
2018-02-08T22:39:36.904Z,-1.56
2018-02-08T22:42:07.996Z,-1.58
2018-02-08T22:44:38.832Z,-1.66
2018-02-08T22:47:09.698Z,-1.65
2018-02-08T22:49:41.074Z,-1.61
2018-02-08T22:52:11.899Z,-1.65
2018-02-08T22:54:42.628Z,-1.45
2018-02-08T22:57:13.704Z,-1.79
2018-02-08T22:59:44.590Z,-1.78
2018-02-08T23:02:15.425Z,-2.05
2018-02-08T23:04:46.520Z,-2.10
2018-02-08T23:07:17.357Z,-1.98
2018-02-08T23:09:48.200Z,-1.97
2018-02-08T23:12:19.369Z,-1.95
2018-02-08T23:14:50.228Z,-1.85
2018-02-08T23:17:22.166Z,-1.91
2018-02-08T23:19:52.971Z,-1.96
2018-02-08T23:22:23.829Z,-1.73
2018-02-08T23:24:54.916Z,-1.93
2018-02-08T23:27:25.769Z,-1.89
2018-02-08T23:29:57.968Z,-1.91
2018-02-08T23:32:29.764Z,-2.16
2018-02-08T23:35:00.565Z,-1.77
2018-02-08T23:37:31.428Z,-2.15
2018-02-08T23:40:02.865Z,-2.18
2018-02-08T23:42:33.746Z,-2.03
2018-02-08T23:45:04.856Z,-1.93
2018-02-08T23:47:36.632Z,-2.12
2018-02-08T23:50:07.944Z,-2.15
2018-02-08T23:52:39.452Z,-1.90
2018-02-08T23:55:10.192Z,-1.92
2018-02-08T23:57:40.956Z,-1.79
